KILG/ILG METAR and TAF weather

Enter ICAO airport designator
Station Type Date Time Source
KILG METAR 2020/01/27 16:51 UTC NOAA

KILG 271651Z 26010KT 10SM BKN045 08/00 A2977 RMK AO2 SLP080 T00830000 $


Station Type Date Time Source
KILG Decoded METAR 2020/01/27 16:51 UTC NOAA

WILMINGTON NEW CASTLE CO, DE, United States (KILG) 39-40N 075-36W 28M
Jan 27, 2020 - 11:51 AM EST / 2020.01.27 1651 UTC
Wind: from the W (260 degrees) at 12 MPH (10 KT):0
Visibility: 10 mile(s):0
Sky conditions: mostly cloudy
Temperature: 46.9 F (8.3 C)
Dew Point: 32.0 F (0.0 C)
Relative Humidity: 55%
Pressure (altimeter): 29.77 in. Hg (1008 hPa)
ob: KILG 271651Z 26010KT 10SM BKN045 08/00 A2977 RMK AO2 SLP080 T00830000
cycle: 17

Station Type Date Time Source
KILG TAF 2020/01/27 15:12 UTC NOAA

TAF
AMD KILG 271508Z 2715/2812 25010KT P6SM BKN045 OVC100
TEMPO 2715/2719 SCT045 BKN100
FM271900 28010G18KT P6SM BKN045
FM272300 29006KT P6SM SCT045

Example: see airport list